Terminal Aerodrome Forecast
Issued by NWS Twin Cities, MN

Home | Current Version | Previous Version | Text Only | Print | Product List | Glossary On
Versions: 1 2 3 4 5 6 7 8 9 10 11 12 13 14 15 16 17 18 19 20 21 22 23 24 25 26 27 28
218
FTUS43 KMPX 281733
TAFMSP
TAF
KMSP 281733Z 2818/0124 03009KT P6SM SCT015 OVC020
     FM282300 02010KT P6SM OVC015
     FM010500 36013KT 2SM -SN BR OVC015
      TEMPO 0107/0111 1SM -SN BR OVC010
     FM011500 33008KT P6SM BKN020=

USA.gov is the U.S. government's official web portal to all federal, state and local government web resources and services.